MSLP Airport Information

Runway Information
Runway 07 Length 10500 ft width 148 ft
Elevation 77 ft Threshold 0 ft Heading 70
Runway 25 Length 10500 ft Width 148 ft
Elevation 99 ft Threshold 0 ft Heading 250
Runway 18 Length 2625 ft width 75 ft
Elevation 101 ft Threshold 0 ft Heading 180
Runway 36 Length 2625 ft Width 75 ft
Elevation 123 ft Threshold 0 ft Heading 360
Airport Frequencies
Type APP Name APP Frequency 119.9 MHZ
Type ATIS Name ATIS Frequency 127.6 MHZ
Type CLD Name CLNC DEL Frequency 121.25 MHZ
Type GND Name GND Frequency 121.7 MHZ
Type RDO Name RDO Frequency 126.9 MHZ
Type TWR Name TWR Frequency 118 MHZ
Airport Navaids
Type VOR-DME Name El Salvador Frequency 117500 KHZ
Type NDB Name Amatecampo Frequency 331 KHZ
Airport Weather Information & NOTAM
ADDS - METARS form results

(2117 UTC 16 August 2018)
 
METAR text: MSLP 162050Z 34008KT 300V010 9999 VCTS BKN023 SCT037CB BKN057 27/23 Q1011 A2988 NOSIG CB N/NE/W/NW
Conditions at: MSLP (EL SALVADOR INT , SV) observed 2050 UTC 16 August 2018
Temperature: 27.0°C (81°F)
Dewpoint: 23.0°C (73°F) [RH = 79%]
Pressure (altimeter): 29.85 inches Hg (1011.0 mb)
Winds: from the NNW (340 degrees) at 9 MPH (8 knots; 4.2 m/s)
Visibility: 6 or more miles (10+ km)
Ceiling: 2300 feet AGL
Clouds: broken clouds at 2300 feet AGL
scattered clouds at 3700 feet AGL
broken clouds at 5700 feet AGL
Weather: VCTS  (thunderstorm in vicinity)

METAR text: MSLP 162031Z 34010KT 9999 VCTS BKN023 FEW037CB BKN060 28/23 Q1012 NOSIG CB N/NE/NW
Conditions at: MSLP (EL SALVADOR INT , SV) observed 2031 UTC 16 August 2018
Temperature: 28.0°C (82°F)
Dewpoint: 23.0°C (73°F) [RH = 74%]
Pressure (altimeter): 29.88 inches Hg (1012.0 mb)
Winds: from the NNW (340 degrees) at 12 MPH (10 knots; 5.2 m/s)
Visibility: 6 or more miles (10+ km)
Ceiling: 2300 feet AGL
Clouds: broken clouds at 2300 feet AGL
few clouds at 3700 feet AGL
broken clouds at 6000 feet AGL
Weather: VCTS  (thunderstorm in vicinity)